createdAt,value
2018-07-20T00:01:41.695Z,18.20
2018-07-20T00:04:11.899Z,18.20
2018-07-20T00:06:41.968Z,18.10
2018-07-20T00:09:12.079Z,18.20
2018-07-20T00:11:42.532Z,18.20
2018-07-20T00:14:13.931Z,18.10
2018-07-20T00:16:43.654Z,18.10
2018-07-20T00:19:13.168Z,18.10
2018-07-20T00:21:44.626Z,18.00
2018-07-20T00:24:15.090Z,18.00
2018-07-20T00:26:44.734Z,18.00
2018-07-20T00:29:14.950Z,17.90
2018-07-20T00:31:44.994Z,17.90
2018-07-20T00:34:17.057Z,17.90
2018-07-20T00:36:46.985Z,17.80
2018-07-20T00:39:16.239Z,17.80
2018-07-20T00:41:45.972Z,17.80
2018-07-20T00:44:15.124Z,17.80
2018-07-20T00:46:44.578Z,17.70
2018-07-20T00:49:14.202Z,17.70
2018-07-20T00:51:43.792Z,17.60
2018-07-20T00:54:14.590Z,17.60
2018-07-20T00:56:44.470Z,17.60
2018-07-20T00:59:13.107Z,17.60
2018-07-20T01:01:42.902Z,17.60
2018-07-20T01:04:13.044Z,17.60
2018-07-20T01:06:43.893Z,17.50
2018-07-20T01:09:13.904Z,17.50
2018-07-20T01:11:44.391Z,17.50
2018-07-20T01:14:15.423Z,17.50
2018-07-20T01:16:45.105Z,17.50
2018-07-20T01:19:16.464Z,17.50
2018-07-20T01:21:47.404Z,17.50
2018-07-20T01:24:17.839Z,17.40
2018-07-20T01:26:48.841Z,17.40
2018-07-20T01:29:20.077Z,17.30
2018-07-20T01:31:50.725Z,17.30
2018-07-20T01:34:22.592Z,17.30
2018-07-20T01:36:53.560Z,17.30
2018-07-20T01:39:23.704Z,17.20
2018-07-20T01:41:52.993Z,17.20
2018-07-20T01:44:22.891Z,17.20
2018-07-20T01:46:52.720Z,17.10
2018-07-20T01:49:24.202Z,17.10
2018-07-20T01:51:55.590Z,17.10
2018-07-20T01:54:26.010Z,17.00
2018-07-20T01:56:55.584Z,17.00
2018-07-20T01:59:24.805Z,17.00
2018-07-20T02:01:55.015Z,17.00
2018-07-20T02:04:24.659Z,17.10
2018-07-20T02:06:53.924Z,17.10
2018-07-20T02:09:25.817Z,17.10
2018-07-20T02:11:57.131Z,17.20
2018-07-20T02:14:28.163Z,17.20
2018-07-20T02:16:57.773Z,17.30
2018-07-20T02:19:27.500Z,17.30
2018-07-20T02:21:58.070Z,17.40
2018-07-20T02:24:27.679Z,17.50
2018-07-20T02:26:57.661Z,17.60
2018-07-20T02:29:27.218Z,17.70
2018-07-20T02:31:57.504Z,17.80
2018-07-20T02:34:29.505Z,17.90
2018-07-20T02:37:00.760Z,17.90
2018-07-20T02:39:31.161Z,17.90
2018-07-20T02:42:01.155Z,18.00
2018-07-20T02:44:31.749Z,18.00
2018-07-20T02:47:03.157Z,18.10
2018-07-20T02:49:32.551Z,18.20
2018-07-20T02:52:06.465Z,18.20
2018-07-20T02:54:35.686Z,18.30
2018-07-20T02:57:04.947Z,18.40
2018-07-20T02:59:36.406Z,18.50
2018-07-20T03:02:07.440Z,18.60
2018-07-20T03:04:37.434Z,18.80
2018-07-20T03:07:07.591Z,18.80
2018-07-20T03:09:38.123Z,18.80
2018-07-20T03:12:08.580Z,18.80
2018-07-20T03:14:39.501Z,18.80
2018-07-20T03:17:09.412Z,18.70
2018-07-20T03:19:39.425Z,18.70
2018-07-20T03:22:09.864Z,18.70
2018-07-20T03:24:40.588Z,18.70
2018-07-20T03:27:11.459Z,18.70
2018-07-20T03:29:42.557Z,18.70
2018-07-20T03:32:16.631Z,18.80
2018-07-20T03:34:48.316Z,18.80
2018-07-20T03:37:18.672Z,18.90
2018-07-20T03:39:48.706Z,19.00
2018-07-20T03:42:19.540Z,19.20
2018-07-20T03:44:50.839Z,19.40
2018-07-20T03:47:21.564Z,19.60
2018-07-20T03:49:51.694Z,19.70
2018-07-20T03:52:23.722Z,19.80
2018-07-20T03:54:54.675Z,20.00
2018-07-20T03:57:24.398Z,20.10
2018-07-20T03:59:53.788Z,20.20
2018-07-20T04:02:22.928Z,20.30
2018-07-20T04:04:52.632Z,20.40
2018-07-20T04:07:23.722Z,20.50
2018-07-20T04:09:53.640Z,20.70
2018-07-20T04:12:23.172Z,20.80
2018-07-20T04:14:57.288Z,20.90
2018-07-20T04:17:30.420Z,21.00
2018-07-20T04:19:59.569Z,21.00
2018-07-20T04:22:30.221Z,21.00
2018-07-20T04:25:01.151Z,21.10
2018-07-20T04:27:31.659Z,21.00
2018-07-20T04:30:01.320Z,21.00
2018-07-20T04:32:32.948Z,21.10
2018-07-20T04:35:10.720Z,21.00
2018-07-20T04:37:40.347Z,21.00
2018-07-20T04:40:09.621Z,21.00
2018-07-20T04:42:40.138Z,21.00
2018-07-20T04:45:09.731Z,21.00
2018-07-20T04:47:40.289Z,21.00
2018-07-20T04:50:09.764Z,21.00
2018-07-20T04:52:39.735Z,21.10
2018-07-20T04:55:08.753Z,21.10
2018-07-20T04:57:38.447Z,21.30
2018-07-20T05:00:08.526Z,21.40
2018-07-20T05:02:40.426Z,21.50
2018-07-20T05:05:10.545Z,21.70
2018-07-20T05:07:45.108Z,21.90
2018-07-20T05:10:14.578Z,22.10
2018-07-20T05:12:45.496Z,22.20
2018-07-20T05:15:17.543Z,22.40
2018-07-20T05:17:48.243Z,22.60
2018-07-20T05:20:18.440Z,22.70
2018-07-20T05:22:48.387Z,22.80
2018-07-20T05:25:19.268Z,23.00
2018-07-20T05:27:50.175Z,23.10
2018-07-20T05:30:19.605Z,23.20
2018-07-20T05:32:48.964Z,23.30
2018-07-20T05:35:19.749Z,23.50
2018-07-20T05:37:49.421Z,23.60
2018-07-20T05:40:18.625Z,23.60
2018-07-20T05:42:48.353Z,23.70
2018-07-20T05:45:20.013Z,23.80
2018-07-20T05:47:50.197Z,23.90
2018-07-20T05:50:20.110Z,23.90
2018-07-20T05:52:51.212Z,24.10
2018-07-20T05:55:21.995Z,24.10
2018-07-20T05:57:53.499Z,24.20
2018-07-20T06:00:24.450Z,24.20
2018-07-20T06:02:54.438Z,24.30
2018-07-20T06:05:25.075Z,24.40
2018-07-20T06:07:56.211Z,24.50
2018-07-20T06:10:27.411Z,24.60
2018-07-20T06:12:56.431Z,24.70
2018-07-20T06:15:26.207Z,24.70
2018-07-20T06:17:57.366Z,24.70
2018-07-20T06:20:28.414Z,24.80
2018-07-20T06:22:59.092Z,24.90
2018-07-20T06:25:29.471Z,25.00
2018-07-20T06:27:58.958Z,25.10
2018-07-20T06:30:29.073Z,25.20
2018-07-20T06:32:58.102Z,25.20
2018-07-20T06:35:34.060Z,25.40
2018-07-20T06:38:05.710Z,25.40
2018-07-20T06:40:36.455Z,25.50
2018-07-20T06:43:06.134Z,25.60
2018-07-20T06:45:36.195Z,25.60
2018-07-20T06:48:06.365Z,25.60
2018-07-20T06:50:35.734Z,25.60
2018-07-20T06:53:05.024Z,25.60
2018-07-20T06:55:35.327Z,25.60
2018-07-20T06:58:04.296Z,25.70
2018-07-20T07:00:33.225Z,25.80
2018-07-20T07:03:03.497Z,25.90
2018-07-20T07:05:33.345Z,25.90
2018-07-20T07:08:02.988Z,25.90
2018-07-20T07:10:32.574Z,25.90
2018-07-20T07:13:02.104Z,25.90
2018-07-20T07:15:31.527Z,26.00
2018-07-20T07:18:02.505Z,26.10
2018-07-20T07:20:32.832Z,26.10
2018-07-20T07:23:04.364Z,26.10
2018-07-20T07:25:36.430Z,26.20
2018-07-20T07:28:07.999Z,26.20
2018-07-20T07:30:37.621Z,26.10
2018-07-20T07:33:07.380Z,26.20
2018-07-20T07:35:40.412Z,26.20
2018-07-20T07:38:11.933Z,26.30
2018-07-20T07:40:43.122Z,26.30
2018-07-20T07:43:14.749Z,26.30
2018-07-20T07:45:45.405Z,26.40
2018-07-20T07:48:22.262Z,26.50
2018-07-20T07:54:18.363Z,26.60
2018-07-20T07:56:50.095Z,26.70
2018-07-20T07:59:25.401Z,26.80
2018-07-20T08:01:56.452Z,26.90
2018-07-20T08:04:26.701Z,26.90
2018-07-20T08:06:56.733Z,27.00
2018-07-20T08:09:27.403Z,27.10
2018-07-20T08:11:58.628Z,27.10
2018-07-20T08:14:30.186Z,27.10
2018-07-20T08:17:01.184Z,27.20
2018-07-20T08:19:32.316Z,27.10
2018-07-20T08:22:02.047Z,27.10
2018-07-20T08:24:32.569Z,27.20
2018-07-20T08:27:01.545Z,27.20
2018-07-20T08:29:32.872Z,27.20
2018-07-20T08:32:02.386Z,27.30
2018-07-20T08:34:33.443Z,27.30
2018-07-20T08:37:04.447Z,27.40
2018-07-20T08:39:34.876Z,27.60
2018-07-20T08:42:04.945Z,27.80
2018-07-20T08:44:36.461Z,27.90
2018-07-20T08:47:06.872Z,28.00
2018-07-20T08:49:36.573Z,28.00
2018-07-20T08:52:05.417Z,27.80
2018-07-20T08:54:38.600Z,27.70
2018-07-20T08:57:07.307Z,27.60
2018-07-20T08:59:38.323Z,27.60
2018-07-20T09:02:08.334Z,27.60
2018-07-20T09:04:38.534Z,27.60
2018-07-20T09:07:07.624Z,27.60
2018-07-20T09:09:39.586Z,27.70
2018-07-20T09:12:10.001Z,27.80
2018-07-20T09:14:41.627Z,28.00
2018-07-20T09:17:13.428Z,28.30
2018-07-20T09:19:43.897Z,28.40
2018-07-20T09:22:14.748Z,28.60
2018-07-20T09:24:46.808Z,28.80
2018-07-20T09:27:18.165Z,28.80
2018-07-20T09:29:50.575Z,28.70
2018-07-20T09:32:21.375Z,28.70
2018-07-20T09:34:52.491Z,28.70
2018-07-20T09:37:22.758Z,28.70
2018-07-20T09:39:54.139Z,28.70
2018-07-20T09:42:24.294Z,28.50
2018-07-20T09:44:54.899Z,28.30
2018-07-20T09:47:25.229Z,28.20
2018-07-20T09:49:57.174Z,28.10
2018-07-20T09:52:27.256Z,28.10
2018-07-20T09:54:57.916Z,28.00
2018-07-20T09:57:29.058Z,27.90
2018-07-20T09:59:58.597Z,27.80
2018-07-20T10:02:28.446Z,27.80
2018-07-20T10:04:58.505Z,27.90
2018-07-20T10:07:29.365Z,27.90
2018-07-20T10:10:00.299Z,27.90
2018-07-20T10:12:31.068Z,28.00
2018-07-20T10:15:02.091Z,28.00
2018-07-20T10:17:32.303Z,27.90
2018-07-20T10:20:02.928Z,27.90
2018-07-20T10:22:33.654Z,27.90
2018-07-20T10:25:05.260Z,28.00
2018-07-20T10:27:36.437Z,28.20
2018-07-20T10:30:07.864Z,28.60
2018-07-20T10:32:39.700Z,28.70
2018-07-20T10:35:09.361Z,28.90
2018-07-20T10:37:40.391Z,29.10
2018-07-20T15:41:53.705Z,28.90
2018-07-20T18:37:34.445Z,26.90
2018-07-20T18:40:04.325Z,26.70
2018-07-20T19:00:34.587Z,25.90
2018-07-20T19:03:04.829Z,25.80
2018-07-20T19:11:40.800Z,25.30
2018-07-20T19:14:12.057Z,25.10
2018-07-20T19:22:48.379Z,24.80
2018-07-20T19:25:20.348Z,24.90
2018-07-20T19:27:51.047Z,24.80
2018-07-20T19:30:23.351Z,24.90
2018-07-20T19:32:54.982Z,24.80
2018-07-20T19:35:25.588Z,24.80
2018-07-20T19:37:55.836Z,24.70
2018-07-20T19:47:23.507Z,24.60
2018-07-20T19:49:56.361Z,24.40
2018-07-20T19:52:28.472Z,24.40
2018-07-20T19:54:58.476Z,24.30
2018-07-20T19:57:30.255Z,24.30
2018-07-20T20:00:00.614Z,24.20
2018-07-20T20:02:32.927Z,24.20
2018-07-20T20:05:04.921Z,24.10
2018-07-20T20:07:52.789Z,24.00
2018-07-20T20:10:24.265Z,24.00
2018-07-20T20:12:54.960Z,23.90
2018-07-20T20:15:24.785Z,23.80
2018-07-20T20:17:56.973Z,23.70
2018-07-20T20:20:28.432Z,23.60
2018-07-20T20:23:00.826Z,23.60
2018-07-20T20:25:33.041Z,23.60
2018-07-20T20:34:01.678Z,23.50
2018-07-20T20:36:33.040Z,23.50
2018-07-20T20:39:05.184Z,23.40
2018-07-20T20:41:34.728Z,23.50
2018-07-20T20:44:05.841Z,23.50
2018-07-20T20:46:37.388Z,23.50
2018-07-20T20:49:08.099Z,23.60
2018-07-20T20:51:40.134Z,23.50
2018-07-20T20:54:27.216Z,23.50
2018-07-20T20:56:57.863Z,23.50
2018-07-20T20:59:27.351Z,23.50
2018-07-20T21:01:57.109Z,23.40
2018-07-20T21:04:28.988Z,23.30
2018-07-20T21:07:01.297Z,23.30
2018-07-20T21:09:31.503Z,23.30
2018-07-20T21:12:03.645Z,23.20
2018-07-20T21:17:27.445Z,23.00
2018-07-20T21:19:58.354Z,23.00
2018-07-20T21:22:32.252Z,22.90
2018-07-20T21:25:04.289Z,22.80
2018-07-20T21:27:35.887Z,22.70
2018-07-20T21:30:07.951Z,22.70
2018-07-20T21:32:39.317Z,22.60
2018-07-20T21:35:09.552Z,22.50
2018-07-20T21:37:45.880Z,22.50
2018-07-20T21:40:16.997Z,22.40
2018-07-20T21:42:48.614Z,22.40
2018-07-20T21:45:19.516Z,22.30
2018-07-20T21:47:59.261Z,22.10
2018-07-20T21:50:29.407Z,22.10
2018-07-20T21:52:59.825Z,22.00
2018-07-20T21:55:30.559Z,22.00
2018-07-20T21:58:00.242Z,21.90
2018-07-20T22:00:32.029Z,21.90
2018-07-20T22:03:03.683Z,21.80
2018-07-20T22:05:34.457Z,21.70
2018-07-20T22:08:10.589Z,21.70
2018-07-20T22:10:43.343Z,21.70
2018-07-20T22:13:15.173Z,21.60
2018-07-20T22:15:45.230Z,21.60
2018-07-20T22:18:16.357Z,21.60
2018-07-20T22:20:47.844Z,21.50
2018-07-20T22:23:19.399Z,21.50
2018-07-20T22:25:50.912Z,21.50
2018-07-20T22:28:26.180Z,21.40
2018-07-20T22:30:56.259Z,21.40
2018-07-20T22:33:26.503Z,21.30
2018-07-20T22:35:57.456Z,21.30
2018-07-20T22:38:29.259Z,21.30
2018-07-20T22:40:59.902Z,21.30
2018-07-20T22:43:31.151Z,21.30
2018-07-20T22:46:02.843Z,21.20
2018-07-20T22:53:00.105Z,21.20
2018-07-20T22:55:31.810Z,21.10
2018-07-20T22:58:03.743Z,21.00
2018-07-20T23:00:33.964Z,20.90
2018-07-20T23:03:05.491Z,20.90
2018-07-20T23:05:37.311Z,20.90
2018-07-20T23:08:07.657Z,20.80
2018-07-20T23:10:39.064Z,20.80
2018-07-20T23:13:12.053Z,20.80
2018-07-20T23:15:43.254Z,20.70
2018-07-20T23:18:14.566Z,20.70
2018-07-20T23:20:45.578Z,20.70
2018-07-20T23:23:17.085Z,20.70
2018-07-20T23:25:48.882Z,20.60
2018-07-20T23:28:20.261Z,20.60
2018-07-20T23:30:52.167Z,20.60
2018-07-20T23:33:24.796Z,20.60
2018-07-20T23:35:57.037Z,20.60
2018-07-20T23:38:29.318Z,20.60
2018-07-20T23:40:59.296Z,20.60
2018-07-20T23:43:29.232Z,20.50
2018-07-20T23:46:01.520Z,20.50
2018-07-20T23:48:31.210Z,20.50
2018-07-20T23:51:01.123Z,20.40
2018-07-20T23:56:32.787Z,20.40
2018-07-20T23:59:04.245Z,20.40
